sensor_id;sensor_type;location;lat;lon;timestamp;P1;durP1;ratioP1;P2;durP2;ratioP2
1585;SDS011;786;48.718;9.514;2023-03-14T00:02:13;0.40;;;0.32;;
1585;SDS011;786;48.718;9.514;2023-03-14T00:04:39;0.98;;;0.40;;
1585;SDS011;786;48.718;9.514;2023-03-14T00:07:06;0.70;;;0.35;;
1585;SDS011;786;48.718;9.514;2023-03-14T00:09:32;0.50;;;0.45;;
1585;SDS011;786;48.718;9.514;2023-03-14T00:11:59;0.50;;;0.38;;
1585;SDS011;786;48.718;9.514;2023-03-14T00:14:28;0.30;;;0.30;;
1585;SDS011;786;48.718;9.514;2023-03-14T00:16:56;0.60;;;0.40;;
1585;SDS011;786;48.718;9.514;2023-03-14T00:19:22;1.58;;;0.50;;
1585;SDS011;786;48.718;9.514;2023-03-14T00:21:49;0.47;;;0.28;;
1585;SDS011;786;48.718;9.514;2023-03-14T00:24:15;1.35;;;0.30;;
1585;SDS011;786;48.718;9.514;2023-03-14T00:26:42;0.47;;;0.30;;
1585;SDS011;786;48.718;9.514;2023-03-14T00:29:08;0.22;;;0.22;;
1585;SDS011;786;48.718;9.514;2023-03-14T00:31:34;0.40;;;0.30;;
1585;SDS011;786;48.718;9.514;2023-03-14T00:34:03;0.30;;;0.30;;
1585;SDS011;786;48.718;9.514;2023-03-14T00:36:29;0.43;;;0.30;;
1585;SDS011;786;48.718;9.514;2023-03-14T00:38:56;0.98;;;0.47;;
1585;SDS011;786;48.718;9.514;2023-03-14T00:41:22;0.32;;;0.32;;
1585;SDS011;786;48.718;9.514;2023-03-14T00:43:49;1.67;;;0.50;;
1585;SDS011;786;48.718;9.514;2023-03-14T00:46:16;2.05;;;0.30;;
1585;SDS011;786;48.718;9.514;2023-03-14T00:48:43;0.50;;;0.38;;
1585;SDS011;786;48.718;9.514;2023-03-14T00:51:11;1.70;;;0.70;;
1585;SDS011;786;48.718;9.514;2023-03-14T00:53:39;0.35;;;0.35;;
1585;SDS011;786;48.718;9.514;2023-03-14T00:56:08;2.17;;;0.40;;
1585;SDS011;786;48.718;9.514;2023-03-14T00:58:35;0.40;;;0.30;;
1585;SDS011;786;48.718;9.514;2023-03-14T01:01:05;0.52;;;0.40;;
1585;SDS011;786;48.718;9.514;2023-03-14T01:03:32;0.60;;;0.22;;
1585;SDS011;786;48.718;9.514;2023-03-14T01:06:06;0.40;;;0.20;;
1585;SDS011;786;48.718;9.514;2023-03-14T01:08:34;0.70;;;0.32;;
1585;SDS011;786;48.718;9.514;2023-03-14T01:11:04;0.60;;;0.55;;
1585;SDS011;786;48.718;9.514;2023-03-14T01:13:31;2.13;;;0.63;;
1585;SDS011;786;48.718;9.514;2023-03-14T01:16:00;3.70;;;2.20;;
1585;SDS011;786;48.718;9.514;2023-03-14T01:18:27;8.10;;;4.03;;
1585;SDS011;786;48.718;9.514;2023-03-14T01:20:53;4.65;;;2.15;;
1585;SDS011;786;48.718;9.514;2023-03-14T01:23:20;1.70;;;0.98;;
1585;SDS011;786;48.718;9.514;2023-03-14T01:25:48;0.77;;;0.50;;
1585;SDS011;786;48.718;9.514;2023-03-14T01:28:14;1.85;;;0.47;;
1585;SDS011;786;48.718;9.514;2023-03-14T01:30:41;0.63;;;0.45;;
1585;SDS011;786;48.718;9.514;2023-03-14T01:33:07;0.50;;;0.40;;
1585;SDS011;786;48.718;9.514;2023-03-14T01:35:34;1.52;;;0.80;;
1585;SDS011;786;48.718;9.514;2023-03-14T01:38:00;2.75;;;1.15;;
1585;SDS011;786;48.718;9.514;2023-03-14T01:40:26;1.60;;;0.75;;
1585;SDS011;786;48.718;9.514;2023-03-14T01:42:57;4.55;;;2.20;;
1585;SDS011;786;48.718;9.514;2023-03-14T01:48:40;2.08;;;1.13;;
1585;SDS011;786;48.718;9.514;2023-03-14T01:51:09;2.10;;;0.95;;
1585;SDS011;786;48.718;9.514;2023-03-14T01:53:38;3.53;;;1.20;;
1585;SDS011;786;48.718;9.514;2023-03-14T01:56:06;0.55;;;0.40;;
1585;SDS011;786;48.718;9.514;2023-03-14T01:58:34;0.60;;;0.40;;
1585;SDS011;786;48.718;9.514;2023-03-14T02:01:01;1.25;;;0.60;;
1585;SDS011;786;48.718;9.514;2023-03-14T02:03:28;4.18;;;0.88;;
1585;SDS011;786;48.718;9.514;2023-03-14T02:05:55;2.33;;;1.48;;
1585;SDS011;786;48.718;9.514;2023-03-14T02:08:25;2.53;;;1.45;;
1585;SDS011;786;48.718;9.514;2023-03-14T02:10:53;1.65;;;1.30;;
1585;SDS011;786;48.718;9.514;2023-03-14T02:13:20;2.80;;;1.38;;
1585;SDS011;786;48.718;9.514;2023-03-14T02:15:49;1.80;;;1.30;;
1585;SDS011;786;48.718;9.514;2023-03-14T02:18:16;0.73;;;0.60;;
1585;SDS011;786;48.718;9.514;2023-03-14T02:20:45;0.55;;;0.40;;
1585;SDS011;786;48.718;9.514;2023-03-14T02:23:15;0.90;;;0.40;;
1585;SDS011;786;48.718;9.514;2023-03-14T02:25:43;0.40;;;0.38;;
1585;SDS011;786;48.718;9.514;2023-03-14T02:28:13;1.05;;;0.70;;
1585;SDS011;786;48.718;9.514;2023-03-14T02:30:40;0.70;;;0.60;;
1585;SDS011;786;48.718;9.514;2023-03-14T02:33:08;1.13;;;0.70;;
1585;SDS011;786;48.718;9.514;2023-03-14T02:35:37;0.50;;;0.50;;
1585;SDS011;786;48.718;9.514;2023-03-14T02:38:08;1.30;;;0.85;;
1585;SDS011;786;48.718;9.514;2023-03-14T02:43:03;0.60;;;0.43;;
1585;SDS011;786;48.718;9.514;2023-03-14T02:45:36;0.93;;;0.40;;
1585;SDS011;786;48.718;9.514;2023-03-14T02:48:05;0.65;;;0.52;;
1585;SDS011;786;48.718;9.514;2023-03-14T02:50:34;1.10;;;0.80;;
1585;SDS011;786;48.718;9.514;2023-03-14T02:53:01;0.63;;;0.50;;
1585;SDS011;786;48.718;9.514;2023-03-14T02:55:27;0.85;;;0.57;;
1585;SDS011;786;48.718;9.514;2023-03-14T02:57:54;1.08;;;0.60;;
1585;SDS011;786;48.718;9.514;2023-03-14T03:00:20;0.98;;;0.50;;
1585;SDS011;786;48.718;9.514;2023-03-14T03:02:48;1.05;;;0.70;;
1585;SDS011;786;48.718;9.514;2023-03-14T03:05:14;1.15;;;0.60;;
1585;SDS011;786;48.718;9.514;2023-03-14T03:07:41;1.77;;;0.70;;
1585;SDS011;786;48.718;9.514;2023-03-14T03:10:08;0.68;;;0.55;;
1585;SDS011;786;48.718;9.514;2023-03-14T03:12:35;2.65;;;0.88;;
1585;SDS011;786;48.718;9.514;2023-03-14T03:15:01;1.20;;;1.08;;
1585;SDS011;786;48.718;9.514;2023-03-14T03:17:28;1.30;;;0.93;;
1585;SDS011;786;48.718;9.514;2023-03-14T03:19:56;8.95;;;4.30;;
1585;SDS011;786;48.718;9.514;2023-03-14T03:22:22;3.60;;;2.22;;
1585;SDS011;786;48.718;9.514;2023-03-14T03:24:48;5.13;;;3.95;;
1585;SDS011;786;48.718;9.514;2023-03-14T03:27:15;4.95;;;3.22;;
1585;SDS011;786;48.718;9.514;2023-03-14T03:29:41;4.60;;;4.15;;
1585;SDS011;786;48.718;9.514;2023-03-14T03:32:08;2.03;;;0.82;;
1585;SDS011;786;48.718;9.514;2023-03-14T03:34:34;1.13;;;0.40;;
1585;SDS011;786;48.718;9.514;2023-03-14T03:37:02;0.77;;;0.60;;
1585;SDS011;786;48.718;9.514;2023-03-14T03:39:28;0.40;;;0.40;;
1585;SDS011;786;48.718;9.514;2023-03-14T03:41:55;0.98;;;0.57;;
1585;SDS011;786;48.718;9.514;2023-03-14T03:44:21;0.70;;;0.50;;
1585;SDS011;786;48.718;9.514;2023-03-14T03:46:47;0.60;;;0.50;;
1585;SDS011;786;48.718;9.514;2023-03-14T03:49:14;0.50;;;0.50;;
1585;SDS011;786;48.718;9.514;2023-03-14T03:51:40;2.85;;;1.75;;
1585;SDS011;786;48.718;9.514;2023-03-14T03:54:08;1.13;;;0.93;;
1585;SDS011;786;48.718;9.514;2023-03-14T03:56:34;1.30;;;1.10;;
1585;SDS011;786;48.718;9.514;2023-03-14T03:59:00;2.28;;;0.80;;
1585;SDS011;786;48.718;9.514;2023-03-14T04:01:27;1.63;;;0.90;;
1585;SDS011;786;48.718;9.514;2023-03-14T04:03:53;1.05;;;0.70;;
1585;SDS011;786;48.718;9.514;2023-03-14T04:06:20;1.95;;;0.75;;
1585;SDS011;786;48.718;9.514;2023-03-14T04:08:46;2.20;;;1.23;;
1585;SDS011;786;48.718;9.514;2023-03-14T04:11:14;1.45;;;0.90;;
1585;SDS011;786;48.718;9.514;2023-03-14T04:13:40;2.15;;;1.27;;
1585;SDS011;786;48.718;9.514;2023-03-14T04:16:09;1.88;;;0.80;;
1585;SDS011;786;48.718;9.514;2023-03-14T04:18:39;1.10;;;0.63;;
1585;SDS011;786;48.718;9.514;2023-03-14T04:21:05;0.65;;;0.50;;
1585;SDS011;786;48.718;9.514;2023-03-14T04:23:32;0.70;;;0.57;;
1585;SDS011;786;48.718;9.514;2023-03-14T04:25:58;1.77;;;0.80;;
1585;SDS011;786;48.718;9.514;2023-03-14T04:28:26;1.20;;;0.50;;
1585;SDS011;786;48.718;9.514;2023-03-14T04:30:53;2.53;;;0.70;;
1585;SDS011;786;48.718;9.514;2023-03-14T04:33:19;2.20;;;1.00;;
1585;SDS011;786;48.718;9.514;2023-03-14T04:35:46;1.65;;;0.73;;
1585;SDS011;786;48.718;9.514;2023-03-14T04:38:12;3.15;;;0.80;;
1585;SDS011;786;48.718;9.514;2023-03-14T04:40:40;2.97;;;1.30;;
1585;SDS011;786;48.718;9.514;2023-03-14T04:43:06;2.90;;;2.22;;
1585;SDS011;786;48.718;9.514;2023-03-14T04:45:36;2.67;;;1.45;;
1585;SDS011;786;48.718;9.514;2023-03-14T04:48:02;4.03;;;2.92;;
1585;SDS011;786;48.718;9.514;2023-03-14T04:50:29;4.45;;;2.83;;
1585;SDS011;786;48.718;9.514;2023-03-14T04:52:55;19.55;;;13.43;;
1585;SDS011;786;48.718;9.514;2023-03-14T04:55:22;6.80;;;4.32;;
1585;SDS011;786;48.718;9.514;2023-03-14T04:57:48;6.60;;;3.33;;
1585;SDS011;786;48.718;9.514;2023-03-14T05:00:14;4.03;;;1.90;;
1585;SDS011;786;48.718;9.514;2023-03-14T05:02:44;3.35;;;1.88;;
1585;SDS011;786;48.718;9.514;2023-03-14T05:05:11;3.92;;;2.55;;
1585;SDS011;786;48.718;9.514;2023-03-14T05:07:37;7.50;;;2.85;;
1585;SDS011;786;48.718;9.514;2023-03-14T05:10:04;2.72;;;1.85;;
1585;SDS011;786;48.718;9.514;2023-03-14T05:12:31;2.45;;;1.10;;
1585;SDS011;786;48.718;9.514;2023-03-14T05:14:57;2.05;;;1.17;;
1585;SDS011;786;48.718;9.514;2023-03-14T05:17:24;1.10;;;0.75;;
1585;SDS011;786;48.718;9.514;2023-03-14T05:19:51;2.88;;;0.57;;
1585;SDS011;786;48.718;9.514;2023-03-14T05:22:18;0.98;;;0.70;;
1585;SDS011;786;48.718;9.514;2023-03-14T05:24:45;2.88;;;0.70;;
1585;SDS011;786;48.718;9.514;2023-03-14T05:27:11;2.70;;;0.68;;
1585;SDS011;786;48.718;9.514;2023-03-14T05:29:38;1.15;;;0.50;;
1585;SDS011;786;48.718;9.514;2023-03-14T05:32:04;1.75;;;0.60;;
1585;SDS011;786;48.718;9.514;2023-03-14T05:34:30;2.28;;;0.70;;
1585;SDS011;786;48.718;9.514;2023-03-14T05:36:58;2.22;;;0.55;;
1585;SDS011;786;48.718;9.514;2023-03-14T05:39:25;1.73;;;0.52;;
1585;SDS011;786;48.718;9.514;2023-03-14T05:41:51;2.00;;;0.95;;
1585;SDS011;786;48.718;9.514;2023-03-14T05:44:20;1.02;;;0.40;;
1585;SDS011;786;48.718;9.514;2023-03-14T05:46:47;1.05;;;0.60;;
1585;SDS011;786;48.718;9.514;2023-03-14T05:49:13;2.80;;;0.70;;
1585;SDS011;786;48.718;9.514;2023-03-14T05:51:40;0.82;;;0.60;;
1585;SDS011;786;48.718;9.514;2023-03-14T05:54:08;2.05;;;0.47;;
1585;SDS011;786;48.718;9.514;2023-03-14T05:56:34;1.48;;;0.55;;
1585;SDS011;786;48.718;9.514;2023-03-14T05:59:00;2.15;;;0.85;;
1585;SDS011;786;48.718;9.514;2023-03-14T06:01:28;0.88;;;0.80;;
1585;SDS011;786;48.718;9.514;2023-03-14T06:03:55;1.08;;;0.60;;
1585;SDS011;786;48.718;9.514;2023-03-14T06:06:21;3.40;;;0.60;;
1585;SDS011;786;48.718;9.514;2023-03-14T06:08:47;2.65;;;1.00;;
1585;SDS011;786;48.718;9.514;2023-03-14T06:11:16;5.20;;;0.98;;
1585;SDS011;786;48.718;9.514;2023-03-14T06:13:42;2.03;;;0.60;;
1585;SDS011;786;48.718;9.514;2023-03-14T06:16:09;3.88;;;0.80;;
1585;SDS011;786;48.718;9.514;2023-03-14T06:18:35;2.15;;;0.77;;
1585;SDS011;786;48.718;9.514;2023-03-14T06:21:02;1.45;;;0.77;;
1585;SDS011;786;48.718;9.514;2023-03-14T06:23:28;2.60;;;1.13;;
1585;SDS011;786;48.718;9.514;2023-03-14T06:25:55;3.40;;;0.85;;
1585;SDS011;786;48.718;9.514;2023-03-14T06:28:23;2.10;;;1.08;;
1585;SDS011;786;48.718;9.514;2023-03-14T06:30:49;5.60;;;1.17;;
1585;SDS011;786;48.718;9.514;2023-03-14T06:33:16;2.40;;;1.08;;
1585;SDS011;786;48.718;9.514;2023-03-14T06:35:42;3.47;;;0.82;;
1585;SDS011;786;48.718;9.514;2023-03-14T06:38:08;2.72;;;0.77;;
1585;SDS011;786;48.718;9.514;2023-03-14T06:40:35;1.98;;;0.73;;
1585;SDS011;786;48.718;9.514;2023-03-14T06:43:01;4.13;;;0.93;;
1585;SDS011;786;48.718;9.514;2023-03-14T06:45:29;2.97;;;1.00;;
1585;SDS011;786;48.718;9.514;2023-03-14T06:47:55;2.55;;;0.77;;
1585;SDS011;786;48.718;9.514;2023-03-14T06:50:22;1.88;;;0.82;;
1585;SDS011;786;48.718;9.514;2023-03-14T06:52:48;4.40;;;1.73;;
1585;SDS011;786;48.718;9.514;2023-03-14T06:55:15;2.47;;;0.90;;
1585;SDS011;786;48.718;9.514;2023-03-14T06:57:42;1.70;;;0.77;;
1585;SDS011;786;48.718;9.514;2023-03-14T07:00:09;4.18;;;1.23;;
1585;SDS011;786;48.718;9.514;2023-03-14T07:02:38;3.28;;;1.30;;
1585;SDS011;786;48.718;9.514;2023-03-14T07:05:05;3.20;;;1.33;;
1585;SDS011;786;48.718;9.514;2023-03-14T07:07:32;3.00;;;1.40;;
1585;SDS011;786;48.718;9.514;2023-03-14T07:09:58;2.58;;;1.33;;
1585;SDS011;786;48.718;9.514;2023-03-14T07:12:25;2.78;;;1.00;;
1585;SDS011;786;48.718;9.514;2023-03-14T07:14:51;3.53;;;1.90;;
1585;SDS011;786;48.718;9.514;2023-03-14T07:17:17;5.35;;;1.70;;
1585;SDS011;786;48.718;9.514;2023-03-14T07:19:45;2.80;;;0.90;;
1585;SDS011;786;48.718;9.514;2023-03-14T07:22:12;1.88;;;1.08;;
1585;SDS011;786;48.718;9.514;2023-03-14T07:24:38;2.28;;;1.08;;
1585;SDS011;786;48.718;9.514;2023-03-14T07:27:04;2.15;;;1.02;;
1585;SDS011;786;48.718;9.514;2023-03-14T07:29:31;2.05;;;0.77;;
1585;SDS011;786;48.718;9.514;2023-03-14T07:31:57;0.93;;;0.80;;
1585;SDS011;786;48.718;9.514;2023-03-14T07:34:23;1.38;;;0.52;;
1585;SDS011;786;48.718;9.514;2023-03-14T07:36:51;1.65;;;0.70;;
1585;SDS011;786;48.718;9.514;2023-03-14T07:39:18;2.67;;;0.57;;
1585;SDS011;786;48.718;9.514;2023-03-14T07:41:44;2.03;;;0.80;;
1585;SDS011;786;48.718;9.514;2023-03-14T07:44:11;1.77;;;0.70;;
1585;SDS011;786;48.718;9.514;2023-03-14T07:49:13;2.35;;;1.17;;
1585;SDS011;786;48.718;9.514;2023-03-14T07:51:40;1.33;;;0.80;;
1585;SDS011;786;48.718;9.514;2023-03-14T07:54:07;0.73;;;0.40;;
1585;SDS011;786;48.718;9.514;2023-03-14T07:56:34;0.98;;;0.40;;
1585;SDS011;786;48.718;9.514;2023-03-14T07:59:00;0.80;;;0.50;;
1585;SDS011;786;48.718;9.514;2023-03-14T08:01:27;2.40;;;0.55;;
1585;SDS011;786;48.718;9.514;2023-03-14T08:03:53;1.33;;;1.23;;
1585;SDS011;786;48.718;9.514;2023-03-14T08:06:19;1.52;;;1.33;;
1585;SDS011;786;48.718;9.514;2023-03-14T08:08:46;3.72;;;3.50;;
1585;SDS011;786;48.718;9.514;2023-03-14T08:11:14;3.10;;;2.90;;
1585;SDS011;786;48.718;9.514;2023-03-14T08:13:40;4.70;;;4.40;;
1585;SDS011;786;48.718;9.514;2023-03-14T08:16:07;5.38;;;4.97;;
1585;SDS011;786;48.718;9.514;2023-03-14T08:18:34;5.35;;;4.95;;
1585;SDS011;786;48.718;9.514;2023-03-14T08:21:01;7.20;;;6.57;;
1585;SDS011;786;48.718;9.514;2023-03-14T08:23:27;4.53;;;4.13;;
1585;SDS011;786;48.718;9.514;2023-03-14T08:25:53;5.45;;;4.97;;
1585;SDS011;786;48.718;9.514;2023-03-14T08:28:21;3.50;;;3.20;;
1585;SDS011;786;48.718;9.514;2023-03-14T08:30:48;4.30;;;3.90;;
1585;SDS011;786;48.718;9.514;2023-03-14T08:33:14;3.65;;;3.30;;
1585;SDS011;786;48.718;9.514;2023-03-14T08:35:41;4.50;;;4.20;;
1585;SDS011;786;48.718;9.514;2023-03-14T08:38:07;5.32;;;4.97;;
1585;SDS011;786;48.718;9.514;2023-03-14T08:40:34;6.50;;;6.03;;
1585;SDS011;786;48.718;9.514;2023-03-14T08:43:00;6.05;;;5.65;;
1585;SDS011;786;48.718;9.514;2023-03-14T08:45:28;4.90;;;4.50;;
1585;SDS011;786;48.718;9.514;2023-03-14T08:47:54;5.22;;;4.85;;
1585;SDS011;786;48.718;9.514;2023-03-14T08:50:21;4.93;;;4.53;;
1585;SDS011;786;48.718;9.514;2023-03-14T08:52:48;4.75;;;4.45;;
1585;SDS011;786;48.718;9.514;2023-03-14T08:55:14;5.65;;;5.25;;
1585;SDS011;786;48.718;9.514;2023-03-14T08:57:41;5.63;;;5.28;;
1585;SDS011;786;48.718;9.514;2023-03-14T09:00:07;3.53;;;3.22;;
1585;SDS011;786;48.718;9.514;2023-03-14T09:02:40;5.07;;;4.70;;
1585;SDS011;786;48.718;9.514;2023-03-14T09:05:08;4.18;;;3.78;;
1585;SDS011;786;48.718;9.514;2023-03-14T09:07:35;5.82;;;5.40;;
1585;SDS011;786;48.718;9.514;2023-03-14T09:10:01;5.90;;;5.40;;
1585;SDS011;786;48.718;9.514;2023-03-14T09:12:28;4.97;;;4.68;;
1585;SDS011;786;48.718;9.514;2023-03-14T09:14:55;5.72;;;5.43;;
1585;SDS011;786;48.718;9.514;2023-03-14T09:17:21;6.45;;;6.05;;
1585;SDS011;786;48.718;9.514;2023-03-14T09:19:49;5.90;;;5.40;;
1585;SDS011;786;48.718;9.514;2023-03-14T09:22:15;4.85;;;4.45;;
1585;SDS011;786;48.718;9.514;2023-03-14T09:24:42;5.63;;;5.30;;
1585;SDS011;786;48.718;9.514;2023-03-14T09:27:08;5.60;;;5.18;;
1585;SDS011;786;48.718;9.514;2023-03-14T09:29:35;4.43;;;4.03;;
1585;SDS011;786;48.718;9.514;2023-03-14T09:32:01;6.45;;;5.97;;
1585;SDS011;786;48.718;9.514;2023-03-14T09:34:28;4.65;;;3.85;;
1585;SDS011;786;48.718;9.514;2023-03-14T09:36:56;7.90;;;7.35;;
1585;SDS011;786;48.718;9.514;2023-03-14T09:39:23;6.43;;;6.03;;
1585;SDS011;786;48.718;9.514;2023-03-14T09:41:50;4.13;;;3.88;;
1585;SDS011;786;48.718;9.514;2023-03-14T09:44:19;4.53;;;4.22;;
1585;SDS011;786;48.718;9.514;2023-03-14T09:46:49;4.47;;;4.18;;
1585;SDS011;786;48.718;9.514;2023-03-14T09:49:18;4.00;;;3.80;;
1585;SDS011;786;48.718;9.514;2023-03-14T09:51:46;4.78;;;4.47;;
1585;SDS011;786;48.718;9.514;2023-03-14T09:54:17;3.53;;;3.30;;
1585;SDS011;786;48.718;9.514;2023-03-14T09:56:52;5.10;;;4.78;;
1585;SDS011;786;48.718;9.514;2023-03-14T09:59:19;4.90;;;4.50;;
1585;SDS011;786;48.718;9.514;2023-03-14T10:01:46;6.03;;;5.63;;
1585;SDS011;786;48.718;9.514;2023-03-14T10:04:14;6.03;;;3.72;;
1585;SDS011;786;48.718;9.514;2023-03-14T10:06:42;4.22;;;3.92;;
1585;SDS011;786;48.718;9.514;2023-03-14T10:09:08;4.70;;;4.40;;
1585;SDS011;786;48.718;9.514;2023-03-14T10:11:39;4.60;;;4.30;;
1585;SDS011;786;48.718;9.514;2023-03-14T10:14:06;4.03;;;3.72;;
1585;SDS011;786;48.718;9.514;2023-03-14T10:16:34;5.45;;;5.05;;
1585;SDS011;786;48.718;9.514;2023-03-14T10:19:03;4.30;;;4.00;;
1585;SDS011;786;48.718;9.514;2023-03-14T10:21:31;5.70;;;5.20;;
1585;SDS011;786;48.718;9.514;2023-03-14T10:24:09;4.35;;;3.95;;
1585;SDS011;786;48.718;9.514;2023-03-14T10:26:36;10.65;;;9.57;;
1585;SDS011;786;48.718;9.514;2023-03-14T10:29:08;8.48;;;7.68;;
1585;SDS011;786;48.718;9.514;2023-03-14T10:31:45;5.63;;;4.80;;
1585;SDS011;786;48.718;9.514;2023-03-14T10:34:15;3.80;;;3.08;;
1585;SDS011;786;48.718;9.514;2023-03-14T10:36:43;5.32;;;4.60;;
1585;SDS011;786;48.718;9.514;2023-03-14T10:39:21;5.18;;;4.78;;
1585;SDS011;786;48.718;9.514;2023-03-14T10:41:52;4.78;;;4.20;;
1585;SDS011;786;48.718;9.514;2023-03-14T10:44:19;4.10;;;3.80;;
1585;SDS011;786;48.718;9.514;2023-03-14T10:46:53;4.07;;;3.88;;
1585;SDS011;786;48.718;9.514;2023-03-14T10:49:23;5.13;;;4.82;;
1585;SDS011;786;48.718;9.514;2023-03-14T10:51:53;5.82;;;5.32;;
1585;SDS011;786;48.718;9.514;2023-03-14T10:54:20;4.03;;;3.72;;
1585;SDS011;786;48.718;9.514;2023-03-14T10:56:56;4.68;;;4.13;;
1585;SDS011;786;48.718;9.514;2023-03-14T10:59:24;5.32;;;4.93;;
1585;SDS011;786;48.718;9.514;2023-03-14T11:01:52;4.65;;;4.25;;
1585;SDS011;786;48.718;9.514;2023-03-14T11:04:24;6.13;;;5.63;;
1585;SDS011;786;48.718;9.514;2023-03-14T11:07:04;7.65;;;6.97;;
1585;SDS011;786;48.718;9.514;2023-03-14T11:09:36;6.18;;;5.63;;
1585;SDS011;786;48.718;9.514;2023-03-14T11:12:25;5.10;;;4.60;;
1585;SDS011;786;48.718;9.514;2023-03-14T11:15:02;6.70;;;5.93;;
1585;SDS011;786;48.718;9.514;2023-03-14T11:17:34;7.05;;;6.45;;
1585;SDS011;786;48.718;9.514;2023-03-14T11:20:12;7.03;;;6.43;;
1585;SDS011;786;48.718;9.514;2023-03-14T11:22:50;4.68;;;4.22;;
1585;SDS011;786;48.718;9.514;2023-03-14T11:25:22;6.20;;;5.63;;
1585;SDS011;786;48.718;9.514;2023-03-14T11:27:56;5.40;;;4.90;;
1585;SDS011;786;48.718;9.514;2023-03-14T11:30:30;6.18;;;5.68;;
1585;SDS011;786;48.718;9.514;2023-03-14T11:33:02;8.52;;;7.82;;
1585;SDS011;786;48.718;9.514;2023-03-14T11:35:33;5.43;;;4.93;;
1585;SDS011;786;48.718;9.514;2023-03-14T11:38:03;6.53;;;6.00;;
1585;SDS011;786;48.718;9.514;2023-03-14T11:40:36;7.72;;;7.05;;
1585;SDS011;786;48.718;9.514;2023-03-14T11:43:06;6.63;;;6.07;;
1585;SDS011;786;48.718;9.514;2023-03-14T11:45:37;7.22;;;6.63;;
1585;SDS011;786;48.718;9.514;2023-03-14T11:48:13;11.20;;;10.23;;
1585;SDS011;786;48.718;9.514;2023-03-14T11:50:43;5.80;;;5.30;;
1585;SDS011;786;48.718;9.514;2023-03-14T11:53:11;4.25;;;3.85;;
1585;SDS011;786;48.718;9.514;2023-03-14T11:55:40;7.57;;;6.95;;
1585;SDS011;786;48.718;9.514;2023-03-14T11:58:11;5.75;;;5.22;;
1585;SDS011;786;48.718;9.514;2023-03-14T12:00:40;5.00;;;4.60;;
1585;SDS011;786;48.718;9.514;2023-03-14T12:03:09;5.55;;;5.10;;
1585;SDS011;786;48.718;9.514;2023-03-14T12:05:39;5.70;;;5.22;;
1585;SDS011;786;48.718;9.514;2023-03-14T12:11:17;4.72;;;4.32;;
1585;SDS011;786;48.718;9.514;2023-03-14T12:13:48;4.88;;;4.47;;
1585;SDS011;786;48.718;9.514;2023-03-14T12:16:23;3.90;;;3.60;;
1585;SDS011;786;48.718;9.514;2023-03-14T12:18:53;5.97;;;5.47;;
1585;SDS011;786;48.718;9.514;2023-03-14T12:21:20;5.85;;;5.40;;
1585;SDS011;786;48.718;9.514;2023-03-14T12:23:48;5.47;;;4.97;;
1585;SDS011;786;48.718;9.514;2023-03-14T12:26:16;4.72;;;4.32;;
1585;SDS011;786;48.718;9.514;2023-03-14T12:28:49;5.50;;;5.00;;
1585;SDS011;786;48.718;9.514;2023-03-14T12:31:36;5.15;;;4.75;;
1585;SDS011;786;48.718;9.514;2023-03-14T12:34:10;6.63;;;6.05;;
1585;SDS011;786;48.718;9.514;2023-03-14T12:36:52;5.15;;;4.72;;
1585;SDS011;786;48.718;9.514;2023-03-14T12:39:25;5.10;;;4.70;;
1585;SDS011;786;48.718;9.514;2023-03-14T12:42:01;7.38;;;6.78;;
1585;SDS011;786;48.718;9.514;2023-03-14T12:44:44;6.30;;;5.75;;
1585;SDS011;786;48.718;9.514;2023-03-14T12:50:22;5.88;;;5.30;;
1585;SDS011;786;48.718;9.514;2023-03-14T12:52:55;6.18;;;5.60;;
1585;SDS011;786;48.718;9.514;2023-03-14T12:55:43;9.43;;;8.43;;
1585;SDS011;786;48.718;9.514;2023-03-14T12:58:13;4.07;;;3.78;;
1585;SDS011;786;48.718;9.514;2023-03-14T13:00:44;5.97;;;5.47;;
1585;SDS011;786;48.718;9.514;2023-03-14T13:03:17;5.47;;;5.03;;
1585;SDS011;786;48.718;9.514;2023-03-14T13:05:54;5.93;;;5.35;;
1585;SDS011;786;48.718;9.514;2023-03-14T13:08:32;5.28;;;4.80;;
1585;SDS011;786;48.718;9.514;2023-03-14T13:11:01;5.47;;;5.05;;
1585;SDS011;786;48.718;9.514;2023-03-14T13:13:28;4.38;;;4.00;;
1585;SDS011;786;48.718;9.514;2023-03-14T13:15:56;4.97;;;4.32;;
1585;SDS011;786;48.718;9.514;2023-03-14T13:18:26;4.85;;;4.45;;
1585;SDS011;786;48.718;9.514;2023-03-14T13:20:55;6.45;;;5.93;;
1585;SDS011;786;48.718;9.514;2023-03-14T13:23:25;30.30;;;27.33;;
1585;SDS011;786;48.718;9.514;2023-03-14T13:25:52;5.38;;;4.95;;
1585;SDS011;786;48.718;9.514;2023-03-14T13:28:19;3.88;;;3.40;;
1585;SDS011;786;48.718;9.514;2023-03-14T13:30:46;7.85;;;7.07;;
1585;SDS011;786;48.718;9.514;2023-03-14T13:33:16;4.47;;;4.07;;
1585;SDS011;786;48.718;9.514;2023-03-14T13:35:44;4.53;;;4.13;;
1585;SDS011;786;48.718;9.514;2023-03-14T13:38:15;4.30;;;3.83;;
1585;SDS011;786;48.718;9.514;2023-03-14T13:40:44;5.28;;;4.88;;
1585;SDS011;786;48.718;9.514;2023-03-14T13:43:13;4.25;;;3.95;;
1585;SDS011;786;48.718;9.514;2023-03-14T13:45:47;5.00;;;4.60;;
1585;SDS011;786;48.718;9.514;2023-03-14T13:48:16;4.63;;;4.18;;
1585;SDS011;786;48.718;9.514;2023-03-14T13:50:49;5.30;;;4.90;;
1585;SDS011;786;48.718;9.514;2023-03-14T13:53:17;4.32;;;3.92;;
1585;SDS011;786;48.718;9.514;2023-03-14T13:55:44;5.50;;;4.97;;
1585;SDS011;786;48.718;9.514;2023-03-14T13:58:11;3.80;;;3.50;;
1585;SDS011;786;48.718;9.514;2023-03-14T14:00:53;4.22;;;3.92;;
1585;SDS011;786;48.718;9.514;2023-03-14T14:03:22;3.10;;;2.90;;
1585;SDS011;786;48.718;9.514;2023-03-14T14:05:48;5.00;;;4.60;;
1585;SDS011;786;48.718;9.514;2023-03-14T14:08:15;3.85;;;3.25;;
1585;SDS011;786;48.718;9.514;2023-03-14T14:10:41;4.47;;;4.07;;
1585;SDS011;786;48.718;9.514;2023-03-14T14:13:08;3.97;;;3.67;;
1585;SDS011;786;48.718;9.514;2023-03-14T14:15:39;3.90;;;3.65;;
1585;SDS011;786;48.718;9.514;2023-03-14T14:18:11;3.70;;;3.40;;
1585;SDS011;786;48.718;9.514;2023-03-14T14:20:41;4.72;;;4.40;;
1585;SDS011;786;48.718;9.514;2023-03-14T14:23:10;4.32;;;4.00;;
1585;SDS011;786;48.718;9.514;2023-03-14T14:25:38;6.75;;;6.22;;
1585;SDS011;786;48.718;9.514;2023-03-14T14:28:14;6.30;;;5.80;;
1585;SDS011;786;48.718;9.514;2023-03-14T14:30:42;4.05;;;3.75;;
1585;SDS011;786;48.718;9.514;2023-03-14T14:33:15;4.57;;;4.18;;
1585;SDS011;786;48.718;9.514;2023-03-14T14:35:50;4.35;;;4.00;;
1585;SDS011;786;48.718;9.514;2023-03-14T14:38:18;4.40;;;4.10;;
1585;SDS011;786;48.718;9.514;2023-03-14T14:40:47;4.28;;;3.65;;
1585;SDS011;786;48.718;9.514;2023-03-14T14:43:17;4.53;;;4.13;;
1585;SDS011;786;48.718;9.514;2023-03-14T14:45:44;5.60;;;5.10;;
1585;SDS011;786;48.718;9.514;2023-03-14T14:48:13;4.63;;;4.10;;
1585;SDS011;786;48.718;9.514;2023-03-14T14:50:48;4.15;;;3.85;;
1585;SDS011;786;48.718;9.514;2023-03-14T14:53:21;3.08;;;2.78;;
1585;SDS011;786;48.718;9.514;2023-03-14T14:55:49;3.97;;;3.67;;
1585;SDS011;786;48.718;9.514;2023-03-14T14:58:18;3.45;;;3.17;;
1585;SDS011;786;48.718;9.514;2023-03-14T15:00:50;4.60;;;4.18;;
1585;SDS011;786;48.718;9.514;2023-03-14T15:03:18;4.40;;;4.00;;
1585;SDS011;786;48.718;9.514;2023-03-14T15:05:44;4.65;;;4.25;;
1585;SDS011;786;48.718;9.514;2023-03-14T15:08:12;5.53;;;5.05;;
1585;SDS011;786;48.718;9.514;2023-03-14T15:10:39;4.20;;;3.83;;
1585;SDS011;786;48.718;9.514;2023-03-14T15:13:05;5.50;;;5.10;;
1585;SDS011;786;48.718;9.514;2023-03-14T15:15:32;3.72;;;3.45;;
1585;SDS011;786;48.718;9.514;2023-03-14T15:17:59;4.47;;;4.18;;
1585;SDS011;786;48.718;9.514;2023-03-14T15:20:26;5.00;;;4.57;;
1585;SDS011;786;48.718;9.514;2023-03-14T15:22:53;5.57;;;4.68;;
1585;SDS011;786;48.718;9.514;2023-03-14T15:25:20;3.65;;;3.38;;
1585;SDS011;786;48.718;9.514;2023-03-14T15:27:47;5.80;;;5.35;;
1585;SDS011;786;48.718;9.514;2023-03-14T15:30:14;5.70;;;5.22;;
1585;SDS011;786;48.718;9.514;2023-03-14T15:32:41;6.25;;;4.68;;
1585;SDS011;786;48.718;9.514;2023-03-14T15:35:08;4.20;;;3.80;;
1585;SDS011;786;48.718;9.514;2023-03-14T15:37:35;4.88;;;4.53;;
1585;SDS011;786;48.718;9.514;2023-03-14T15:40:01;4.90;;;4.43;;
1585;SDS011;786;48.718;9.514;2023-03-14T15:42:31;4.75;;;4.28;;
1585;SDS011;786;48.718;9.514;2023-03-14T15:44:57;5.82;;;4.05;;
1585;SDS011;786;48.718;9.514;2023-03-14T15:47:24;5.43;;;5.00;;
1585;SDS011;786;48.718;9.514;2023-03-14T15:49:52;4.10;;;3.80;;
1585;SDS011;786;48.718;9.514;2023-03-14T15:52:18;4.03;;;3.55;;